Home   Weather   Russia   Astrakhan   Past weeks
Flag for Russia

Past Weather in Astrakhan, Russia — Yesterday and Last 2 Weeks

Currently: 68 °F. Clear. (Weather station: Astrakhan, Russia). See more current weather

Past Weather in Astrakhan — Graph

°F

Astrakhan Temperature Yesterday

Maximum temperature yesterday: 82 °F (at 1:30 pm)
Minimum temperature yesterday: 66 °F (at 7:30 am)
Average temperature yesterday: 74 °F

High & Low Weather Summary for the Past Weeks

 TemperatureHumidityPressure
High91 °F (Jun 1, 3:00 pm)88% (Jun 8, 2:30 am)30.01 "Hg (Jun 8, 2:30 am)
Low59 °F (Jun 5, 4:00 am)22% (Jun 12, 3:30 pm)29.65 "Hg (Jun 2, 2:30 pm)
Average73 °F56%29.86 "Hg
* Reported May 31 1:00 am — Jun 15 1:30 am, Astrakhan. Weather by CustomWeather, © 2021

Note: Actual official high and low records may vary slightly from our data, if they occured in-between our weather recording intervals... More about our weather records

Astrakhan Weather History for the Previous 24 Hours

Scroll right to see more
 ConditionsComfort  
Time TempWeatherWind HumidityBarometerVisibility
1:30 am
Tue, Jun 15
70 °FClear.3 mph78%29.77 "Hg10 mi
1:00 am70 °FClear.6 mph78%29.77 "Hg10 mi
12:30 am70 °FClear.6 mph78%29.77 "Hg10 mi
12:00 am72 °FClear.6 mph73%29.77 "Hg10 mi
11:30 pm
Mon, Jun 14
72 °FClear.6 mph73%29.80 "Hg10 mi
11:00 pm73 °FClear.6 mph69%29.80 "Hg10 mi
10:30 pm73 °FClear.8 mph69%29.80 "Hg10 mi
10:00 pm75 °FClear.6 mph61%29.80 "Hg10 mi
9:30 pm75 °FSunny.6 mph65%29.80 "Hg10 mi
9:00 pm77 °FSunny.6 mph61%29.80 "Hg10 mi
8:30 pm79 °FPassing clouds.3 mph54%29.80 "HgN/A
8:00 pm79 °FSunny.6 mph54%29.80 "Hg10 mi
7:30 pm81 °FSunny.8 mph51%29.80 "Hg10 mi
7:00 pm81 °FSunny.8 mph48%29.80 "Hg10 mi
6:30 pm81 °FPassing clouds.8 mph48%29.80 "HgN/A
6:00 pm82 °FSunny.8 mph45%29.80 "Hg10 mi
5:30 pm81 °FPassing clouds.8 mph51%29.80 "HgN/A
5:00 pm81 °FSunny.10 mph51%29.80 "Hg10 mi
4:30 pm81 °FPassing clouds.10 mph51%29.83 "HgN/A
4:00 pm82 °FPassing clouds.13 mph48%29.83 "HgN/A
3:30 pm82 °FPassing clouds.13 mph48%29.83 "HgN/A
3:00 pm81 °FScattered clouds.13 mph51%29.83 "HgN/A
2:30 pm82 °FScattered clouds.13 mph45%29.83 "HgN/A
2:00 pm82 °FPassing clouds.10 mph45%29.83 "HgN/A
1:30 pm82 °FPassing clouds.10 mph48%29.83 "HgN/A
1:00 pm79 °FSunny.13 mph48%29.83 "Hg10 mi
12:30 pm79 °FPassing clouds.10 mph54%29.83 "HgN/A
12:00 pm79 °FPassing clouds.10 mph58%29.83 "HgN/A
11:30 am77 °FPassing clouds.8 mph61%29.86 "HgN/A
11:00 am75 °FSunny.10 mph65%29.86 "Hg10 mi
10:30 am72 °FPassing clouds.6 mph73%29.86 "HgN/A
10:00 am70 °FScattered clouds.8 mph78%29.83 "HgN/A
9:30 am70 °FScattered clouds.6 mph83%29.86 "HgN/A
9:00 am68 °FPartly sunny.6 mph83%29.86 "HgN/A
8:30 am68 °FSprinkles. Partly sunny.6 mph83%29.86 "HgN/A
8:00 am66 °FSprinkles. Partly sunny.3 mph88%29.86 "HgN/A
7:30 am66 °FSprinkles. Broken clouds.6 mph88%29.86 "Hg5 mi
7:00 am68 °FSprinkles. Broken clouds.3 mph83%29.86 "Hg3 mi
6:30 am68 °FSprinkles. Scattered clouds.3 mph83%29.86 "Hg5 mi
6:00 am70 °FThunderstorms. Scattered clouds.6 mph78%29.86 "HgN/A
5:30 am70 °FSprinkles. Passing clouds.6 mph78%29.83 "HgN/A
5:00 am70 °FPassing clouds.8 mph78%29.80 "HgN/A
4:30 am70 °FPassing clouds.8 mph78%29.77 "HgN/A
3:30 am70 °FPassing clouds.1 mph73%29.83 "HgN/A
3:00 am68 °FPassing clouds.1 mph78%29.83 "HgN/A
2:30 am68 °FPassing clouds.1 mph73%29.83 "HgN/A
2:00 am68 °FPassing clouds.No wind78%29.83 "HgN/A
Weather by CustomWeather, © 2021

See weather overview